Time;durP1;ratioP1;P1;durP2;ratioP2;P2;SDS_P1;SDS_P2;PMS_P1;PMS_P2;Temp;Humidity;BMP_temperature;BMP_pressure;BME280_temperature;BME280_humidity;BME280_pressure;Samples;Min_cycle;Max_cycle;Signal;HPM_P1;HPM_P2
2022/10/13 00:01:17;;;;;;;10.40;6.33;;;13.30;95.00;;;;;;5013586;28;20493;-72
2022/10/13 00:03:47;;;;;;;8.00;6.03;;;13.40;95.10;;;;;;5003289;28;20782;-72
2022/10/13 00:06:27;;;;;;;8.83;6.67;;;13.40;95.10;;;;;;5015068;28;20449;-72
2022/10/13 00:08:53;;;;;;;9.57;6.57;;;13.30;95.10;;;;;;5028609;28;20451;-72
2022/10/13 00:11:20;;;;;;;8.50;5.97;;;13.30;95.10;;;;;;4997037;28;20434;-72
2022/10/13 00:13:48;;;;;;;10.30;6.17;;;13.30;95.10;;;;;;5006978;28;20523;-72
2022/10/13 00:16:17;;;;;;;8.40;5.77;;;13.30;95.10;;;;;;4991102;28;21569;-72
2022/10/13 00:18:43;;;;;;;8.17;5.50;;;13.30;95.10;;;;;;5013898;28;20483;-72
2022/10/13 00:21:16;;;;;;;7.17;6.03;;;13.30;95.10;;;;;;5000155;28;20523;-73
2022/10/13 00:23:45;;;;;;;8.30;6.37;;;13.30;95.20;;;;;;4985323;28;20491;-72
2022/10/13 00:26:15;;;;;;;8.80;6.00;;;13.30;95.20;;;;;;5012830;28;20818;-72
2022/10/13 00:28:41;;;;;;;8.00;5.77;;;13.30;95.20;;;;;;4996799;28;20454;-72
2022/10/13 00:31:30;;;;;;;9.50;6.47;;;13.30;95.20;;;;;;4991944;28;20427;-73
2022/10/13 00:34:00;;;;;;;11.10;5.77;;;13.30;95.20;;;;;;5003603;28;20463;-72
2022/10/13 00:36:37;;;;;;;8.87;6.20;;;13.30;95.30;;;;;;4979292;28;21154;-72
2022/10/13 00:39:03;;;;;;;7.27;6.10;;;13.30;95.30;;;;;;5030608;28;21009;-72
2022/10/13 00:41:29;;;;;;;9.03;6.80;;;13.30;95.30;;;;;;5024085;28;20463;-72
2022/10/13 00:43:58;;;;;;;9.67;6.60;;;13.30;95.30;;;;;;5004708;28;20544;-72
2022/10/13 00:46:27;;;;;;;7.73;5.93;;;13.30;95.30;;;;;;5001073;28;20519;-72
2022/10/13 00:49:06;;;;;;;12.40;6.60;;;13.30;95.30;;;;;;4993744;28;20437;-72
2022/10/13 00:51:38;;;;;;;8.00;6.00;;;13.30;95.40;;;;;;4989423;28;20964;-72
2022/10/13 00:54:08;;;;;;;9.63;6.83;;;13.30;95.40;;;;;;5007174;28;20532;-72
2022/10/13 00:56:38;;;;;;;11.00;6.70;;;13.30;95.40;;;;;;4989271;28;20468;-72
2022/10/13 00:59:17;;;;;;;10.03;7.00;;;13.30;95.50;;;;;;4993464;28;20403;-72
2022/10/13 01:01:50;;;;;;;8.00;6.20;;;13.30;95.50;;;;;;4994437;28;20462;-72
2022/10/13 01:04:24;;;;;;;7.97;5.70;;;13.30;95.50;;;;;;4986143;28;20518;-72
2022/10/13 01:06:52;;;;;;;6.93;5.53;;;13.30;95.50;;;;;;4977263;28;20952;-72
2022/10/13 01:09:19;;;;;;;11.40;6.77;;;13.30;95.50;;;;;;5017283;28;20433;-72
2022/10/13 01:11:46;;;;;;;9.07;6.33;;;13.20;95.50;;;;;;5008512;28;20453;-72
2022/10/13 01:14:32;;;;;;;9.53;6.10;;;13.20;95.50;;;;;;4993860;28;20453;-72
2022/10/13 01:17:07;;;;;;;7.47;6.33;;;13.30;95.60;;;;;;4992772;28;20481;-72
2022/10/13 01:19:55;;;;;;;8.77;6.10;;;13.30;95.60;;;;;;4992889;28;20909;-72
2022/10/13 01:23:05;;;;;;;6.60;5.70;;;13.20;95.60;;;;;;4969283;28;20975;-72
2022/10/13 01:25:52;;;;;;;6.83;6.13;;;13.20;95.60;;;;;;5006678;28;20430;-72
2022/10/13 01:28:50;;;;;;;14.33;6.73;;;13.20;95.60;;;;;;4994136;28;20485;-72
2022/10/13 01:31:26;;;;;;;9.30;7.03;;;13.20;95.60;;;;;;5007177;28;20789;-72
2022/10/13 01:34:04;;;;;;;6.60;5.47;;;13.20;95.70;;;;;;5010296;28;20416;-72
2022/10/13 01:36:40;;;;;;;8.03;5.53;;;13.20;95.70;;;;;;4993704;28;21280;-72
2022/10/13 01:39:41;;;;;;;8.67;5.97;;;13.20;95.70;;;;;;5008285;28;20942;-72
2022/10/13 01:42:21;;;;;;;10.10;6.33;;;13.20;95.80;;;;;;4978322;28;20472;-72
2022/10/13 01:44:59;;;;;;;11.33;6.80;;;13.20;95.80;;;;;;4993487;28;20460;-72
2022/10/13 01:47:29;;;;;;;11.03;8.23;;;13.20;95.80;;;;;;4993386;28;20432;-72
2022/10/13 01:49:56;;;;;;;8.30;5.93;;;13.20;95.90;;;;;;4994692;28;20464;-72
2022/10/13 01:52:26;;;;;;;9.10;6.20;;;13.20;95.90;;;;;;4987074;28;20508;-72
2022/10/13 01:54:55;;;;;;;10.37;6.27;;;13.20;95.90;;;;;;4992457;28;20476;-72
2022/10/13 01:57:35;;;;;;;8.37;6.67;;;13.20;95.90;;;;;;4990490;28;20892;-72
2022/10/13 02:00:13;;;;;;;7.77;6.27;;;13.20;95.90;;;;;;5001299;28;20990;-72
2022/10/13 02:03:02;;;;;;;13.87;6.90;;;13.20;96.00;;;;;;5004484;28;20534;-73
2022/10/13 02:05:39;;;;;;;10.00;6.50;;;13.20;96.10;;;;;;4976054;28;20418;-72
2022/10/13 02:08:31;;;;;;;10.30;6.17;;;13.20;96.20;;;;;;5001479;28;20473;-72
2022/10/13 02:11:12;;;;;;;9.60;7.13;;;13.20;96.30;;;;;;4978445;28;20438;-72
2022/10/13 02:13:44;;;;;;;7.70;6.20;;;13.20;96.40;;;;;;5011686;28;20489;-72
2022/10/13 02:16:23;;;;;;;7.70;6.00;;;13.20;96.40;;;;;;5007110;28;20544;-72
2022/10/13 02:18:52;;;;;;;10.10;7.40;;;13.20;96.50;;;;;;4991747;28;20450;-72
2022/10/13 02:21:18;;;;;;;7.90;6.20;;;13.20;96.90;;;;;;4994515;28;20562;-72
2022/10/13 02:23:45;;;;;;;10.03;7.27;;;13.20;96.60;;;;;;4994736;28;20425;-72
2022/10/13 02:26:14;;;;;;;9.37;6.67;;;13.20;96.90;;;;;;4994929;28;20507;-72
2022/10/13 02:28:41;;;;;;;13.53;6.20;;;13.20;96.60;;;;;;4992119;28;20445;-72
2022/10/13 02:31:09;;;;;;;9.60;6.57;;;13.20;96.50;;;;;;5010620;28;20414;-72
2022/10/13 02:33:38;;;;;;;9.43;7.00;;;13.20;96.50;;;;;;4975825;28;20818;-73
2022/10/13 02:36:06;;;;;;;8.40;6.70;;;13.20;96.50;;;;;;4975941;28;20463;-72
2022/10/13 02:38:37;;;;;;;10.23;6.63;;;13.20;96.50;;;;;;4992949;28;20477;-72
2022/10/13 02:41:08;;;;;;;7.73;6.93;;;13.20;96.50;;;;;;5011484;28;20454;-72
2022/10/13 02:43:37;;;;;;;8.00;5.80;;;13.20;96.60;;;;;;5011025;28;20440;-72
2022/10/13 02:46:03;;;;;;;10.07;6.47;;;13.20;96.60;;;;;;4996281;28;20459;-72
2022/10/13 02:48:29;;;;;;;9.70;7.20;;;13.20;96.60;;;;;;4991511;28;20420;-72
2022/10/13 02:50:55;;;;;;;8.80;5.70;;;13.20;96.50;;;;;;5004134;28;20421;-72
2022/10/13 02:53:21;;;;;;;11.43;6.33;;;13.20;96.50;;;;;;5000313;28;20439;-72
2022/10/13 02:55:47;;;;;;;10.33;6.20;;;13.20;96.50;;;;;;5011094;28;20414;-72
2022/10/13 02:58:16;;;;;;;8.60;7.27;;;13.20;96.50;;;;;;4986430;28;20258;-72
2022/10/13 03:00:44;;;;;;;7.23;5.93;;;13.20;96.50;;;;;;4989931;28;20919;-72
2022/10/13 03:03:11;;;;;;;8.37;6.80;;;13.20;96.50;;;;;;5009099;28;20445;-72
2022/10/13 03:05:37;;;;;;;8.13;5.90;;;13.20;96.50;;;;;;5003497;28;20845;-72
2022/10/13 03:08:26;;;;;;;14.10;6.60;;;13.20;96.60;;;;;;4989297;28;20846;-72
2022/10/13 03:10:52;;;;;;;6.33;5.70;;;13.20;96.60;;;;;;4998595;28;20437;-72
2022/10/13 03:13:22;;;;;;;9.70;6.30;;;13.20;96.60;;;;;;5009584;28;20446;-72
2022/10/13 03:15:48;;;;;;;7.20;6.33;;;13.20;96.60;;;;;;5000864;28;20512;-72
2022/10/13 03:18:14;;;;;;;9.50;6.20;;;13.20;96.70;;;;;;5000946;28;20817;-72
2022/10/13 03:20:43;;;;;;;7.50;6.30;;;13.20;96.80;;;;;;5007404;28;20453;-72
2022/10/13 03:23:11;;;;;;;6.60;5.90;;;13.20;96.80;;;;;;4991631;28;20542;-72
2022/10/13 03:25:37;;;;;;;7.67;6.30;;;13.20;96.80;;;;;;4994230;28;20466;-72
2022/10/13 03:28:03;;;;;;;8.83;6.03;;;13.20;96.70;;;;;;4993834;28;20964;-72
2022/10/13 03:30:29;;;;;;;6.60;5.90;;;13.20;96.70;;;;;;4998803;28;20473;-73
2022/10/13 03:33:00;;;;;;;8.97;6.43;;;13.20;96.70;;;;;;5010091;28;20550;-72
2022/10/13 03:35:30;;;;;;;8.20;6.03;;;13.20;96.70;;;;;;4995856;28;20435;-73
2022/10/13 03:37:58;;;;;;;6.90;5.70;;;13.20;96.70;;;;;;4992202;28;20575;-73
2022/10/13 03:40:25;;;;;;;8.17;5.83;;;13.20;96.70;;;;;;4996399;28;20922;-72
2022/10/13 03:42:51;;;;;;;12.00;6.77;;;13.20;96.70;;;;;;5013609;28;20477;-73
2022/10/13 03:45:17;;;;;;;9.53;6.93;;;13.20;96.70;;;;;;5014108;28;20428;-72
2022/10/13 03:47:46;;;;;;;10.27;6.27;;;13.20;96.70;;;;;;5008266;28;20557;-72
2022/10/13 03:50:12;;;;;;;7.50;5.90;;;13.20;96.70;;;;;;5002629;28;20482;-72
2022/10/13 03:52:38;;;;;;;12.23;6.80;;;13.20;96.80;;;;;;5017902;28;21020;-72
2022/10/13 03:55:04;;;;;;;9.40;6.53;;;13.20;96.70;;;;;;5014317;28;20504;-72
2022/10/13 03:57:35;;;;;;;9.40;6.60;;;13.20;96.70;;;;;;4995967;28;20788;-72
2022/10/13 04:00:02;;;;;;;8.07;6.30;;;13.20;96.80;;;;;;4994447;28;20431;-72
2022/10/13 04:02:40;;;;;;;6.80;5.80;;;13.10;96.80;;;;;;5014593;28;20245;-72
2022/10/13 04:05:11;;;;;;;9.03;5.90;;;13.20;96.80;;;;;;4990876;28;20842;-72
2022/10/13 04:07:39;;;;;;;6.77;5.60;;;13.20;96.70;;;;;;5011017;28;20547;-72
2022/10/13 04:10:17;;;;;;;10.57;6.40;;;13.20;96.80;;;;;;5006431;28;20932;-72
2022/10/13 04:12:47;;;;;;;6.93;5.77;;;13.20;96.80;;;;;;4996153;28;20478;-73
2022/10/13 04:15:14;;;;;;;9.63;6.57;;;13.10;96.80;;;;;;4996926;28;20767;-72
2022/10/13 04:17:42;;;;;;;7.90;5.90;;;13.10;97.00;;;;;;4999657;28;20448;-72
2022/10/13 04:20:08;;;;;;;7.57;6.77;;;13.20;96.90;;;;;;4983525;28;20478;-72
2022/10/13 04:22:52;;;;;;;8.47;6.00;;;13.20;97.30;;;;;;4980147;28;20504;-71
2022/10/13 04:25:21;;;;;;;7.60;6.03;;;13.10;97.00;;;;;;4994143;28;20503;-71
2022/10/13 04:27:49;;;;;;;7.63;5.93;;;13.20;97.00;;;;;;4994027;28;21011;-72
2022/10/13 04:30:16;;;;;;;8.40;5.97;;;13.20;96.90;;;;;;4978979;28;20449;-71
2022/10/13 04:32:44;;;;;;;7.23;5.90;;;13.10;96.90;;;;;;5004403;28;20462;-72
2022/10/13 04:35:10;;;;;;;6.73;5.97;;;13.10;97.10;;;;;;5013463;28;20429;-71
2022/10/13 04:37:39;;;;;;;10.63;6.43;;;13.10;97.10;;;;;;4999055;28;20455;-71
2022/10/13 04:40:07;;;;;;;7.33;6.10;;;13.10;97.10;;;;;;4980235;28;20451;-72
2022/10/13 04:42:39;;;;;;;7.33;5.70;;;13.10;97.20;;;;;;5006039;28;20453;-71
2022/10/13 04:45:06;;;;;;;8.60;6.17;;;13.10;97.20;;;;;;4977590;28;20474;-72
2022/10/13 04:47:38;;;;;;;13.27;6.57;;;13.10;97.00;;;;;;4994232;28;20987;-71
2022/10/13 04:50:07;;;;;;;7.17;5.10;;;13.10;97.10;;;;;;5012941;28;20775;-71
2022/10/13 04:52:38;;;;;;;7.90;6.40;;;13.10;97.20;;;;;;5002161;28;20773;-71
2022/10/13 04:55:04;;;;;;;8.13;6.10;;;13.10;97.20;;;;;;5008633;28;20437;-71
2022/10/13 04:57:31;;;;;;;8.03;6.03;;;13.10;97.20;;;;;;4993534;28;20449;-71
2022/10/13 04:59:59;;;;;;;10.23;6.33;;;13.10;97.30;;;;;;4994495;28;20478;-72
2022/10/13 05:02:33;;;;;;;7.60;5.73;;;13.10;97.10;;;;;;5004783;28;20510;-71
2022/10/13 05:05:03;;;;;;;9.27;5.33;;;13.10;97.10;;;;;;4997653;28;20942;-73
2022/10/13 05:07:30;;;;;;;9.30;6.20;;;13.10;97.20;;;;;;4995910;28;20457;-71
2022/10/13 05:10:00;;;;;;;8.73;5.83;;;13.10;97.10;;;;;;5012244;28;20920;-71
2022/10/13 05:12:26;;;;;;;9.27;6.23;;;13.10;97.20;;;;;;4995194;28;20442;-71
2022/10/13 05:14:52;;;;;;;8.60;5.47;;;13.10;97.20;;;;;;5004874;28;20932;-71
2022/10/13 05:17:19;;;;;;;6.90;5.50;;;13.10;97.10;;;;;;5011716;28;20914;-71
2022/10/13 05:19:45;;;;;;;7.60;5.87;;;13.10;97.30;;;;;;5029018;28;20463;-71
2022/10/13 05:22:11;;;;;;;9.10;6.43;;;13.10;97.30;;;;;;4997703;28;20450;-71
2022/10/13 05:24:40;;;;;;;7.70;6.23;;;13.10;97.40;;;;;;5011513;28;20416;-73
2022/10/13 05:27:13;;;;;;;10.93;6.37;;;13.10;97.50;;;;;;5008798;28;20591;-73
2022/10/13 05:29:40;;;;;;;7.00;5.63;;;13.10;97.40;;;;;;4991710;28;20429;-73
2022/10/13 05:32:08;;;;;;;11.57;5.77;;;13.10;97.40;;;;;;5005417;28;20459;-71
2022/10/13 05:34:36;;;;;;;8.73;5.73;;;13.10;97.30;;;;;;5012088;28;20448;-72
2022/10/13 05:37:02;;;;;;;12.50;7.00;;;13.10;97.40;;;;;;4995734;28;20470;-72
2022/10/13 05:39:29;;;;;;;6.90;5.50;;;13.10;97.40;;;;;;4993411;28;20432;-72
2022/10/13 05:41:55;;;;;;;7.57;5.63;;;13.10;97.40;;;;;;4993736;28;20517;-71
2022/10/13 05:44:23;;;;;;;6.93;5.50;;;13.10;97.40;;;;;;5006905;28;20214;-71
2022/10/13 05:46:54;;;;;;;7.13;5.57;;;13.10;97.40;;;;;;4986110;28;20445;-71
2022/10/13 05:49:23;;;;;;;6.73;5.73;;;13.10;97.40;;;;;;4994516;28;20431;-71
2022/10/13 05:52:02;;;;;;;7.00;5.37;;;13.10;97.30;;;;;;5001321;28;20564;-71
2022/10/13 05:54:33;;;;;;;10.47;6.30;;;13.10;97.20;;;;;;5011531;28;20495;-71
2022/10/13 05:57:06;;;;;;;6.90;5.70;;;13.10;97.20;;;;;;4992155;28;20460;-71
2022/10/13 05:59:41;;;;;;;11.17;6.20;;;13.10;97.30;;;;;;4975712;28;20471;-71
2022/10/13 06:02:13;;;;;;;7.27;5.90;;;13.10;97.30;;;;;;4997770;28;20483;-71
2022/10/13 06:04:49;;;;;;;9.93;6.33;;;13.10;97.40;;;;;;5010012;28;20416;-71
2022/10/13 06:07:16;;;;;;;6.87;5.87;;;13.10;97.40;;;;;;5012001;28;20438;-71
2022/10/13 06:09:42;;;;;;;6.47;5.30;;;13.10;97.40;;;;;;5008039;28;20815;-71
2022/10/13 06:12:09;;;;;;;8.83;6.30;;;13.10;97.40;;;;;;4989208;28;20452;-71
2022/10/13 06:14:35;;;;;;;7.23;6.50;;;13.10;97.40;;;;;;4994115;28;20428;-71
2022/10/13 06:17:05;;;;;;;9.60;6.50;;;13.10;97.40;;;;;;5011230;28;20556;-71
2022/10/13 06:19:34;;;;;;;7.83;6.67;;;13.10;97.50;;;;;;5010946;28;20404;-71
2022/10/13 06:22:07;;;;;;;6.33;5.67;;;13.10;97.60;;;;;;5007722;28;20454;-71
2022/10/13 06:24:33;;;;;;;7.53;5.93;;;13.10;97.60;;;;;;5001716;28;20426;-73
2022/10/13 06:27:01;;;;;;;13.63;6.20;;;13.10;97.60;;;;;;4995077;28;20462;-73
2022/10/13 06:29:27;;;;;;;9.87;6.30;;;13.10;97.50;;;;;;5009806;28;20434;-73
2022/10/13 06:31:56;;;;;;;7.07;6.00;;;13.10;97.40;;;;;;4976711;28;20436;-71
2022/10/13 06:34:24;;;;;;;7.17;5.63;;;13.10;97.40;;;;;;5012318;28;20412;-71
2022/10/13 06:36:50;;;;;;;8.83;5.80;;;13.10;97.50;;;;;;4962232;28;20628;-71
2022/10/13 06:39:21;;;;;;;7.60;6.17;;;13.10;97.60;;;;;;5011295;28;20489;-71
2022/10/13 06:41:48;;;;;;;8.00;5.80;;;13.10;97.50;;;;;;5008375;28;20482;-71
2022/10/13 06:44:17;;;;;;;9.17;6.23;;;13.10;97.50;;;;;;5010052;28;20447;-71
2022/10/13 06:46:43;;;;;;;7.93;6.47;;;13.10;97.50;;;;;;4994900;28;20442;-71
2022/10/13 06:49:09;;;;;;;7.37;6.60;;;13.10;97.50;;;;;;5010826;28;20486;-72
2022/10/13 06:51:39;;;;;;;9.70;6.30;;;13.10;97.60;;;;;;5011606;28;20448;-72
2022/10/13 06:54:06;;;;;;;8.23;5.70;;;13.10;97.80;;;;;;4983569;28;20796;-72
2022/10/13 06:56:35;;;;;;;7.60;5.50;;;13.10;97.40;;;;;;5009087;28;20460;-71
2022/10/13 06:59:09;;;;;;;7.20;5.93;;;13.10;97.50;;;;;;5006357;28;20588;-72
2022/10/13 07:01:38;;;;;;;8.60;6.87;;;13.10;97.40;;;;;;4975876;28;20532;-72
2022/10/13 07:04:10;;;;;;;7.40;6.33;;;13.10;97.40;;;;;;5004901;28;20461;-72
2022/10/13 07:06:36;;;;;;;8.33;6.30;;;13.10;97.50;;;;;;5000393;28;20498;-72
2022/10/13 07:09:07;;;;;;;7.67;5.83;;;13.10;97.60;;;;;;4997825;28;20469;-72
2022/10/13 07:11:34;;;;;;;10.03;5.87;;;13.10;97.60;;;;;;4998793;28;20982;-72
2022/10/13 07:14:03;;;;;;;8.50;6.03;;;13.20;97.50;;;;;;5011215;28;20447;-71
2022/10/13 07:16:31;;;;;;;6.17;5.20;;;13.20;97.50;;;;;;4978917;28;20479;-72
2022/10/13 07:18:57;;;;;;;7.40;6.07;;;13.10;97.60;;;;;;4966753;28;20434;-72
2022/10/13 07:21:23;;;;;;;8.30;6.43;;;13.20;97.50;;;;;;4998616;28;20773;-72
2022/10/13 07:23:49;;;;;;;7.87;6.10;;;13.10;97.50;;;;;;4992240;28;20436;-72
2022/10/13 07:26:18;;;;;;;7.80;5.80;;;13.20;97.50;;;;;;4978682;28;21180;-72
2022/10/13 07:28:45;;;;;;;11.00;7.40;;;13.20;97.50;;;;;;5014022;28;20519;-72
2022/10/13 07:31:16;;;;;;;8.20;5.87;;;13.20;97.50;;;;;;5014925;28;20920;-72
2022/10/13 07:33:49;;;;;;;6.57;5.80;;;13.20;97.60;;;;;;5012095;28;20441;-72
2022/10/13 07:36:16;;;;;;;9.60;6.40;;;13.20;97.50;;;;;;4997775;28;20464;-71
2022/10/13 07:38:45;;;;;;;8.30;5.80;;;13.20;97.50;;;;;;5013803;28;20445;-71
2022/10/13 07:41:12;;;;;;;8.50;5.93;;;13.20;97.60;;;;;;4980331;28;20530;-71
2022/10/13 07:43:40;;;;;;;11.63;6.20;;;13.20;97.60;;;;;;5007267;28;20486;-71
2022/10/13 07:46:07;;;;;;;8.43;6.23;;;13.20;97.50;;;;;;5007691;28;20565;-72
2022/10/13 07:48:34;;;;;;;8.70;6.10;;;13.20;97.50;;;;;;4997849;28;20470;-72
2022/10/13 07:51:10;;;;;;;10.13;5.70;;;13.20;97.50;;;;;;4992216;28;20510;-71
2022/10/13 07:53:42;;;;;;;10.03;5.67;;;13.20;97.50;;;;;;5008500;28;20435;-71
2022/10/13 07:56:13;;;;;;;6.43;5.37;;;13.20;97.50;;;;;;5014174;28;20467;-71
2022/10/13 07:58:45;;;;;;;12.33;6.07;;;13.20;97.60;;;;;;5012261;28;20432;-71
2022/10/13 08:01:12;;;;;;;8.03;6.30;;;13.20;97.50;;;;;;4997547;28;20411;-71
2022/10/13 08:03:42;;;;;;;9.73;6.07;;;13.20;97.50;;;;;;4995931;28;20497;-71
2022/10/13 08:06:13;;;;;;;8.37;6.77;;;13.20;97.50;;;;;;4998035;28;20804;-71
2022/10/13 08:08:41;;;;;;;7.07;5.63;;;13.20;97.90;;;;;;4962614;28;20959;-71
2022/10/13 08:11:12;;;;;;;9.63;6.53;;;13.20;97.50;;;;;;4999732;28;20477;-71
2022/10/13 08:13:38;;;;;;;11.30;6.50;;;13.20;97.50;;;;;;4994467;28;20459;-72
2022/10/13 08:16:14;;;;;;;11.70;6.03;;;13.20;97.50;;;;;;5009071;28;20478;-71
2022/10/13 08:18:40;;;;;;;7.23;5.80;;;13.20;97.50;;;;;;4994305;28;20427;-72
2022/10/13 08:21:11;;;;;;;15.57;6.93;;;13.20;97.40;;;;;;4994180;28;20441;-72
2022/10/13 08:23:37;;;;;;;8.33;6.03;;;13.30;97.50;;;;;;5021732;28;20489;-72
2022/10/13 08:26:22;;;;;;;7.37;6.50;;;13.30;97.50;;;;;;5014075;28;20853;-72
2022/10/13 08:28:48;;;;;;;11.80;6.23;;;13.30;97.50;;;;;;5014542;28;20436;-72
2022/10/13 08:31:19;;;;;;;13.43;6.03;;;13.30;97.50;;;;;;5011950;28;20822;-72
2022/10/13 08:33:50;;;;;;;7.50;5.77;;;13.30;97.50;;;;;;5013972;28;20489;-72
2022/10/13 08:36:20;;;;;;;8.43;6.30;;;13.30;97.40;;;;;;5013853;28;20449;-72
2022/10/13 08:38:46;;;;;;;8.77;7.07;;;13.30;97.40;;;;;;4987625;28;20448;-72
2022/10/13 08:41:19;;;;;;;9.63;6.60;;;13.30;97.50;;;;;;5008396;28;20428;-72
2022/10/13 08:44:00;;;;;;;8.83;6.70;;;13.30;97.50;;;;;;5013261;28;20990;-72
2022/10/13 08:47:02;;;;;;;9.27;6.37;;;13.30;97.50;;;;;;4934924;29;21067;-71
2022/10/13 08:49:31;;;;;;;8.23;6.13;;;13.30;97.60;;;;;;5005915;28;20514;-72
2022/10/13 08:51:58;;;;;;;12.00;6.37;;;13.30;97.60;;;;;;4991664;28;20427;-71
2022/10/13 08:54:25;;;;;;;11.17;6.60;;;13.30;97.60;;;;;;5017593;28;20864;-72
2022/10/13 08:56:54;;;;;;;9.27;6.90;;;13.30;97.70;;;;;;5000241;28;20454;-72
2022/10/13 08:59:42;;;;;;;8.10;6.60;;;13.30;97.60;;;;;;5004273;28;20535;-72
2022/10/13 09:02:38;;;;;;;10.13;7.23;;;13.30;97.70;;;;;;5000282;28;20906;-72
2022/10/13 09:05:14;;;;;;;7.33;6.53;;;13.30;97.70;;;;;;4986419;28;20814;-72
2022/10/13 09:07:43;;;;;;;8.23;6.70;;;13.30;97.70;;;;;;5012090;28;20504;-72
2022/10/13 09:10:15;;;;;;;13.27;6.60;;;13.30;97.70;;;;;;5012228;28;20429;-72
2022/10/13 09:12:43;;;;;;;11.33;6.40;;;13.40;97.80;;;;;;5012630;28;20452;-72
2022/10/13 09:15:12;;;;;;;7.80;6.17;;;13.40;97.80;;;;;;5009359;28;20954;-72
2022/10/13 09:17:40;;;;;;;11.10;6.40;;;13.40;97.90;;;;;;5000998;28;20566;-72
2022/10/13 09:20:14;;;;;;;8.60;6.00;;;13.40;97.90;;;;;;5010254;28;20434;-72
2022/10/13 09:22:42;;;;;;;12.70;6.63;;;13.40;97.80;;;;;;4992795;28;20455;-72
2022/10/13 09:25:21;;;;;;;9.43;6.50;;;13.40;97.80;;;;;;4977773;28;20443;-72
2022/10/13 09:27:59;;;;;;;9.43;6.13;;;13.40;97.80;;;;;;5004995;28;21044;-72
2022/10/13 09:30:39;;;;;;;11.60;6.80;;;13.40;97.80;;;;;;5017043;28;20439;-72
2022/10/13 09:33:20;;;;;;;9.27;6.40;;;13.50;97.90;;;;;;5012092;28;20429;-72
2022/10/13 09:35:49;;;;;;;8.97;6.27;;;13.50;97.90;;;;;;5011655;28;20451;-72
2022/10/13 09:38:23;;;;;;;8.07;6.10;;;13.50;97.90;;;;;;5008194;28;20453;-72
2022/10/13 09:41:12;;;;;;;10.30;6.40;;;13.50;97.90;;;;;;5011925;28;20494;-73
2022/10/13 09:43:46;;;;;;;15.27;6.77;;;13.50;98.00;;;;;;5012649;28;20596;-73
2022/10/13 09:46:44;;;;;;;7.40;5.77;;;13.50;98.00;;;;;;5032469;28;20456;-72
2022/10/13 09:49:33;;;;;;;9.17;6.13;;;13.60;98.20;;;;;;5023683;28;20445;-72
2022/10/13 09:52:04;;;;;;;11.23;7.00;;;13.60;98.40;;;;;;5017609;28;20830;-72
2022/10/13 09:54:52;;;;;;;9.00;6.10;;;13.60;98.40;;;;;;5013453;28;21274;-72
2022/10/13 09:57:47;;;;;;;10.20;6.23;;;13.60;98.30;;;;;;5008655;28;20437;-72
2022/10/13 10:00:25;;;;;;;8.43;6.43;;;13.60;98.30;;;;;;5006945;28;20430;-73
2022/10/13 10:03:01;;;;;;;12.70;7.00;;;13.60;98.30;;;;;;4992406;28;20532;-73
2022/10/13 10:05:54;;;;;;;12.37;6.53;;;13.70;98.30;;;;;;4989932;28;20471;-74
2022/10/13 10:08:50;;;;;;;10.40;6.20;;;13.70;98.30;;;;;;4986678;28;20470;-74
2022/10/13 10:11:20;;;;;;;11.03;7.20;;;13.70;98.20;;;;;;4990302;28;20449;-73
2022/10/13 10:13:46;;;;;;;8.70;6.13;;;13.70;98.20;;;;;;5003681;28;20826;-73
2022/10/13 10:16:29;;;;;;;11.53;6.77;;;13.70;98.20;;;;;;5009188;28;20489;-73
2022/10/13 10:19:18;;;;;;;11.00;5.97;;;13.70;98.20;;;;;;4969782;28;20456;-73
2022/10/13 10:21:55;;;;;;;8.63;5.73;;;13.70;98.20;;;;;;5008304;28;20462;-73
2022/10/13 10:24:53;;;;;;;8.90;6.20;;;13.70;98.10;;;;;;5004593;28;20416;-72
2022/10/13 10:27:43;;;;;;;9.97;6.60;;;13.80;98.20;;;;;;5012230;28;20526;-72
2022/10/13 10:30:14;;;;;;;9.00;5.90;;;13.80;98.20;;;;;;4995755;28;20429;-74
2022/10/13 10:32:43;;;;;;;9.77;6.40;;;13.80;98.10;;;;;;4991702;28;20426;-73
2022/10/13 10:35:15;;;;;;;10.80;6.43;;;13.80;98.10;;;;;;4994653;28;20537;-71
2022/10/13 10:38:02;;;;;;;9.30;5.87;;;13.80;98.10;;;;;;5012453;28;21004;-71
2022/10/13 10:40:47;;;;;;;7.00;6.30;;;13.80;98.10;;;;;;4999668;28;20505;-73
2022/10/13 10:43:45;;;;;;;9.80;6.00;;;13.80;98.10;;;;;;4995588;28;20953;-72
2022/10/13 10:46:27;;;;;;;9.17;5.90;;;13.90;98.10;;;;;;5010687;28;20455;-72
2022/10/13 10:49:11;;;;;;;9.30;6.53;;;13.90;98.10;;;;;;4978289;28;20456;-71
2022/10/13 10:51:40;;;;;;;8.10;5.77;;;13.90;98.10;;;;;;5012726;28;20450;-73
2022/10/13 10:54:14;;;;;;;12.03;6.70;;;13.90;98.10;;;;;;5001355;28;20771;-71
2022/10/13 10:57:32;;;;;;;9.10;6.33;;;14.00;98.10;;;;;;5000301;28;20994;-72
2022/10/13 11:00:22;;;;;;;11.00;6.90;;;13.90;98.10;;;;;;4985521;28;20993;-72
2022/10/13 11:03:21;;;;;;;9.90;7.43;;;14.00;98.10;;;;;;4997274;28;20988;-72
2022/10/13 11:06:00;;;;;;;7.20;5.90;;;14.00;98.10;;;;;;4992157;28;20407;-72
2022/10/13 11:08:39;;;;;;;10.70;6.27;;;14.00;98.10;;;;;;5009179;28;20616;-73
2022/10/13 11:11:27;;;;;;;10.67;6.30;;;14.00;98.10;;;;;;4994369;28;20516;-75
2022/10/13 11:14:04;;;;;;;7.67;6.03;;;14.00;98.00;;;;;;4990208;28;20451;-74
2022/10/13 11:17:05;;;;;;;10.80;5.97;;;14.10;98.10;;;;;;4991620;28;21125;-74
2022/10/13 11:19:38;;;;;;;7.67;6.30;;;14.10;98.00;;;;;;4974662;28;20456;-74
2022/10/13 11:22:04;;;;;;;6.87;5.43;;;14.10;98.00;;;;;;4979777;28;20468;-74
2022/10/13 11:24:37;;;;;;;7.97;6.30;;;14.10;98.10;;;;;;5002071;28;20451;-74
2022/10/13 11:27:10;;;;;;;8.83;5.93;;;14.10;98.20;;;;;;4992189;28;20466;-74
2022/10/13 11:29:50;;;;;;;9.83;6.83;;;14.20;98.20;;;;;;4996761;28;20439;-74
2022/10/13 11:35:06;;;;;;;9.33;6.30;;;14.20;98.30;;;;;;5005877;28;20478;-74
2022/10/13 11:37:54;;;;;;;9.83;7.17;;;14.20;98.20;;;;;;4989576;28;20463;-74
2022/10/13 11:40:25;;;;;;;9.10;6.03;;;14.20;98.20;;;;;;4981768;28;20461;-74
2022/10/13 11:43:18;;;;;;;10.37;7.07;;;14.20;98.10;;;;;;4993005;28;20974;-74
2022/10/13 11:45:53;;;;;;;11.17;7.03;;;14.30;98.20;;;;;;5001724;28;20463;-74
2022/10/13 11:48:28;;;;;;;10.37;6.47;;;14.30;98.30;;;;;;4974474;28;20516;-75
2022/10/13 11:51:22;;;;;;;6.83;6.10;;;14.30;98.50;;;;;;4990835;28;20456;-74
2022/10/13 11:53:54;;;;;;;9.97;5.90;;;14.30;98.70;;;;;;5052237;23;20501;-72
2022/10/13 11:56:33;;;;;;;8.43;5.63;;;14.30;98.70;;;;;;4974775;28;20499;-72
2022/10/13 11:59:01;;;;;;;7.83;5.80;;;14.30;99.10;;;;;;4976065;28;20416;-73
2022/10/13 12:02:15;;;;;;;8.37;5.43;;;14.40;98.90;;;;;;4991976;28;20491;-72
2022/10/13 12:04:42;;;;;;;10.53;6.07;;;14.40;99.10;;;;;;4958932;28;20409;-72
2022/10/13 12:07:16;;;;;;;7.73;5.60;;;14.40;99.10;;;;;;4989356;28;20818;-73
2022/10/13 12:09:54;;;;;;;7.10;5.50;;;14.40;99.00;;;;;;4994186;28;20438;-72
2022/10/13 12:12:22;;;;;;;5.67;5.17;;;14.40;99.10;;;;;;4987977;28;20503;-73
2022/10/13 12:14:56;;;;;;;8.50;5.33;;;14.40;99.20;;;;;;4975652;28;20444;-72
2022/10/13 12:17:29;;;;;;;8.20;5.30;;;14.40;99.40;;;;;;4970277;28;20576;-72
2022/10/13 12:20:23;;;;;;;9.90;5.50;;;14.50;99.60;;;;;;4991408;28;20530;-73
2022/10/13 12:22:53;;;;;;;8.17;5.10;;;14.50;99.70;;;;;;4991515;28;20456;-72
2022/10/13 12:25:28;;;;;;;5.93;5.00;;;14.40;99.60;;;;;;4991970;28;20436;-72
2022/10/13 12:27:59;;;;;;;6.30;5.00;;;14.50;99.50;;;;;;4975484;28;20549;-73
2022/10/13 12:30:34;;;;;;;8.07;5.07;;;14.50;99.30;;;;;;4979222;28;20449;-73
2022/10/13 12:33:18;;;;;;;8.00;4.77;;;14.50;99.00;;;;;;4956087;28;20458;-72
2022/10/13 12:35:44;;;;;;;5.33;4.77;;;14.50;98.90;;;;;;4979057;28;20877;-72
2022/10/13 12:38:18;;;;;;;7.57;5.00;;;14.50;98.90;;;;;;4982721;28;20543;-72
2022/10/13 12:40:46;;;;;;;11.23;5.70;;;14.50;98.90;;;;;;4991368;28;20606;-73
2022/10/13 12:43:18;;;;;;;4.90;4.13;;;14.50;98.80;;;;;;4990991;28;20489;-73
2022/10/13 12:45:50;;;;;;;5.80;4.63;;;14.50;98.70;;;;;;4974960;28;20502;-72
2022/10/13 12:48:50;;;;;;;6.93;4.60;;;14.50;98.60;;;;;;4991051;28;20445;-73
2022/10/13 12:51:28;;;;;;;6.30;4.90;;;14.50;98.60;;;;;;4972289;28;20446;-73
2022/10/13 12:53:56;;;;;;;7.27;5.07;;;14.50;98.50;;;;;;4990014;28;20511;-72
2022/10/13 12:56:31;;;;;;;6.40;4.20;;;14.50;98.50;;;;;;4990891;28;20488;-72
2022/10/13 12:58:57;;;;;;;6.57;5.07;;;14.50;98.40;;;;;;4979262;28;20469;-72
2022/10/13 13:01:30;;;;;;;7.83;4.97;;;14.50;98.30;;;;;;4964042;28;20764;-72
2022/10/13 13:04:16;;;;;;;5.87;5.13;;;14.60;98.20;;;;;;4992908;28;20471;-72
2022/10/13 13:07:31;;;;;;;5.33;4.20;;;14.60;98.20;;;;;;4976626;28;20456;-72
2022/10/13 13:10:02;;;;;;;8.77;4.60;;;14.60;98.30;;;;;;4956841;28;20443;-72
2022/10/13 13:12:29;;;;;;;5.57;4.43;;;14.60;98.40;;;;;;4977103;28;20524;-72
2022/10/13 13:15:34;;;;;;;8.40;4.67;;;14.60;98.30;;;;;;4947455;28;20435;-72
2022/10/13 13:18:22;;;;;;;5.07;3.87;;;14.60;98.20;;;;;;4984917;28;20971;-72
2022/10/13 13:20:56;;;;;;;6.43;4.30;;;14.60;98.20;;;;;;4977319;28;20441;-72